Terminal Aerodrome Forecast
Issued by NWS Sterling, VA

Current Version | Previous Version | Graphics & Text | Print | Product List | Glossary On
Versions: 1 2 3 4 5 6 7 8 9 10 11 12 13 14 15 16 17 18 19 20 21
822
FTUS41 KLWX 212330
TAFDCA
TAF
KDCA 212330Z 2200/2306 18006KT P6SM SCT150 BKN250
     FM221300 06004KT P6SM BKN070 BKN150
     FM221700 12005KT P6SM BKN060 BKN150
     FM230100 14005KT P6SM SCT060=

USA.gov is the U.S. government's official web portal to all federal, state and local government web resources and services.